sensor_id;sensor_type;location;lat;lon;timestamp;P1;durP1;ratioP1;P2;durP2;ratioP2
60292;SDS011;52402;52.670;6.750;2023-10-19T00:00:39;98.38;;;93.57;;
60292;SDS011;52402;52.670;6.750;2023-10-19T00:05:36;101.35;;;96.45;;
60292;SDS011;52402;52.670;6.750;2023-10-19T00:08:03;100.43;;;95.53;;
60292;SDS011;52402;52.670;6.750;2023-10-19T00:13:10;101.78;;;96.88;;
60292;SDS011;52402;52.670;6.750;2023-10-19T00:15:40;101.97;;;97.03;;
60292;SDS011;52402;52.670;6.750;2023-10-19T00:18:17;98.90;;;94.10;;
60292;SDS011;52402;52.670;6.750;2023-10-19T00:20:47;96.57;;;91.85;;
60292;SDS011;52402;52.670;6.750;2023-10-19T00:23:32;99.88;;;94.97;;
60292;SDS011;52402;52.670;6.750;2023-10-19T00:26:00;100.88;;;95.85;;
60292;SDS011;52402;52.670;6.750;2023-10-19T00:28:33;103.38;;;98.28;;
60292;SDS011;52402;52.670;6.750;2023-10-19T00:31:07;103.05;;;98.00;;
60292;SDS011;52402;52.670;6.750;2023-10-19T00:33:33;105.57;;;100.38;;
60292;SDS011;52402;52.670;6.750;2023-10-19T00:36:09;107.15;;;101.85;;
60292;SDS011;52402;52.670;6.750;2023-10-19T00:38:38;110.05;;;104.65;;
60292;SDS011;52402;52.670;6.750;2023-10-19T00:41:14;106.80;;;101.50;;
60292;SDS011;52402;52.670;6.750;2023-10-19T00:43:59;109.18;;;103.78;;
60292;SDS011;52402;52.670;6.750;2023-10-19T00:46:30;111.50;;;105.95;;
60292;SDS011;52402;52.670;6.750;2023-10-19T00:49:08;111.28;;;105.68;;
60292;SDS011;52402;52.670;6.750;2023-10-19T00:54:15;113.57;;;107.88;;
60292;SDS011;52402;52.670;6.750;2023-10-19T00:56:59;110.15;;;104.65;;
60292;SDS011;52402;52.670;6.750;2023-10-19T00:59:41;109.20;;;103.70;;
60292;SDS011;52402;52.670;6.750;2023-10-19T01:05:08;113.30;;;107.55;;
60292;SDS011;52402;52.670;6.750;2023-10-19T01:07:41;107.93;;;102.33;;
60292;SDS011;52402;52.670;6.750;2023-10-19T01:10:07;110.97;;;105.30;;
60292;SDS011;52402;52.670;6.750;2023-10-19T01:12:34;111.13;;;105.47;;
60292;SDS011;52402;52.670;6.750;2023-10-19T01:15:06;108.18;;;102.55;;
60292;SDS011;52402;52.670;6.750;2023-10-19T01:17:39;110.40;;;104.65;;
60292;SDS011;52402;52.670;6.750;2023-10-19T01:20:11;111.60;;;105.78;;
60292;SDS011;52402;52.670;6.750;2023-10-19T01:23:05;108.47;;;102.80;;
60292;SDS011;52402;52.670;6.750;2023-10-19T01:25:47;111.03;;;105.22;;
60292;SDS011;52402;52.670;6.750;2023-10-19T01:30:54;116.47;;;110.38;;
60292;SDS011;52402;52.670;6.750;2023-10-19T01:33:20;116.70;;;110.63;;
60292;SDS011;52402;52.670;6.750;2023-10-19T01:35:48;116.20;;;110.30;;
60292;SDS011;52402;52.670;6.750;2023-10-19T01:38:32;119.47;;;113.30;;
60292;SDS011;52402;52.670;6.750;2023-10-19T01:41:03;119.55;;;113.35;;
60292;SDS011;52402;52.670;6.750;2023-10-19T01:43:49;115.90;;;109.90;;
60292;SDS011;52402;52.670;6.750;2023-10-19T01:46:18;116.60;;;110.53;;
60292;SDS011;52402;52.670;6.750;2023-10-19T01:48:49;116.95;;;110.90;;
60292;SDS011;52402;52.670;6.750;2023-10-19T01:51:24;117.45;;;111.32;;
60292;SDS011;52402;52.670;6.750;2023-10-19T01:53:51;120.85;;;114.55;;
60292;SDS011;52402;52.670;6.750;2023-10-19T01:58:52;121.00;;;114.70;;
60292;SDS011;52402;52.670;6.750;2023-10-19T02:01:19;121.05;;;114.75;;
60292;SDS011;52402;52.670;6.750;2023-10-19T02:03:47;120.28;;;113.95;;
60292;SDS011;52402;52.670;6.750;2023-10-19T02:06:18;115.03;;;108.82;;
60292;SDS011;52402;52.670;6.750;2023-10-19T02:09:32;117.30;;;111.00;;
60292;SDS011;52402;52.670;6.750;2023-10-19T02:11:57;118.45;;;112.10;;
60292;SDS011;52402;52.670;6.750;2023-10-19T02:14:24;114.95;;;108.75;;
60292;SDS011;52402;52.670;6.750;2023-10-19T02:16:52;114.05;;;107.85;;
60292;SDS011;52402;52.670;6.750;2023-10-19T02:19:21;120.63;;;114.15;;
60292;SDS011;52402;52.670;6.750;2023-10-19T02:21:49;120.30;;;113.80;;
60292;SDS011;52402;52.670;6.750;2023-10-19T02:24:17;118.80;;;112.38;;
60292;SDS011;52402;52.670;6.750;2023-10-19T02:26:43;119.00;;;112.50;;
60292;SDS011;52402;52.670;6.750;2023-10-19T02:29:12;117.70;;;111.30;;
60292;SDS011;52402;52.670;6.750;2023-10-19T02:31:41;122.38;;;115.78;;
60292;SDS011;52402;52.670;6.750;2023-10-19T02:34:08;120.60;;;114.10;;
60292;SDS011;52402;52.670;6.750;2023-10-19T02:36:40;122.03;;;115.45;;
60292;SDS011;52402;52.670;6.750;2023-10-19T02:39:07;122.28;;;115.68;;
60292;SDS011;52402;52.670;6.750;2023-10-19T02:41:34;125.95;;;119.18;;
60292;SDS011;52402;52.670;6.750;2023-10-19T02:44:02;122.05;;;115.45;;
60292;SDS011;52402;52.670;6.750;2023-10-19T02:46:37;123.70;;;116.95;;
60292;SDS011;52402;52.670;6.750;2023-10-19T02:49:07;120.05;;;113.45;;
60292;SDS011;52402;52.670;6.750;2023-10-19T02:51:37;122.18;;;115.45;;
60292;SDS011;52402;52.670;6.750;2023-10-19T02:54:03;126.18;;;119.22;;
60292;SDS011;52402;52.670;6.750;2023-10-19T02:56:31;125.63;;;118.72;;
60292;SDS011;52402;52.670;6.750;2023-10-19T02:59:00;123.05;;;116.35;;
60292;SDS011;52402;52.670;6.750;2023-10-19T03:01:29;124.85;;;118.05;;
60292;SDS011;52402;52.670;6.750;2023-10-19T03:03:59;125.90;;;119.00;;
60292;SDS011;52402;52.670;6.750;2023-10-19T03:06:26;122.30;;;115.53;;
60292;SDS011;52402;52.670;6.750;2023-10-19T03:08:59;126.50;;;119.60;;
60292;SDS011;52402;52.670;6.750;2023-10-19T03:11:45;123.88;;;117.13;;
60292;SDS011;52402;52.670;6.750;2023-10-19T03:14:10;127.70;;;120.80;;
60292;SDS011;52402;52.670;6.750;2023-10-19T03:16:41;126.63;;;119.75;;
60292;SDS011;52402;52.670;6.750;2023-10-19T03:19:07;126.03;;;119.18;;
60292;SDS011;52402;52.670;6.750;2023-10-19T03:21:33;125.43;;;118.63;;
60292;SDS011;52402;52.670;6.750;2023-10-19T03:24:10;123.97;;;117.25;;
60292;SDS011;52402;52.670;6.750;2023-10-19T03:26:48;127.80;;;120.90;;
60292;SDS011;52402;52.670;6.750;2023-10-19T03:29:15;122.30;;;115.68;;
60292;SDS011;52402;52.670;6.750;2023-10-19T03:31:47;123.95;;;117.15;;
60292;SDS011;52402;52.670;6.750;2023-10-19T03:34:13;123.53;;;116.72;;
60292;SDS011;52402;52.670;6.750;2023-10-19T03:36:41;119.60;;;113.00;;
60292;SDS011;52402;52.670;6.750;2023-10-19T03:39:08;124.13;;;117.32;;
60292;SDS011;52402;52.670;6.750;2023-10-19T03:41:37;124.40;;;117.60;;
60292;SDS011;52402;52.670;6.750;2023-10-19T03:44:06;127.80;;;120.85;;
60292;SDS011;52402;52.670;6.750;2023-10-19T03:46:38;125.88;;;118.97;;
60292;SDS011;52402;52.670;6.750;2023-10-19T03:49:10;126.97;;;120.07;;
60292;SDS011;52402;52.670;6.750;2023-10-19T03:51:39;127.00;;;120.07;;
60292;SDS011;52402;52.670;6.750;2023-10-19T03:54:05;126.07;;;119.17;;
60292;SDS011;52402;52.670;6.750;2023-10-19T03:56:50;124.63;;;117.78;;
60292;SDS011;52402;52.670;6.750;2023-10-19T03:59:17;130.23;;;123.10;;
60292;SDS011;52402;52.670;6.750;2023-10-19T04:01:43;131.00;;;123.80;;
60292;SDS011;52402;52.670;6.750;2023-10-19T04:04:12;125.82;;;118.90;;
60292;SDS011;52402;52.670;6.750;2023-10-19T04:06:39;125.90;;;118.90;;
60292;SDS011;52402;52.670;6.750;2023-10-19T04:09:14;126.22;;;119.22;;
60292;SDS011;52402;52.670;6.750;2023-10-19T04:11:43;124.53;;;117.53;;
60292;SDS011;52402;52.670;6.750;2023-10-19T04:14:15;126.43;;;119.38;;
60292;SDS011;52402;52.670;6.750;2023-10-19T04:16:41;126.75;;;119.65;;
60292;SDS011;52402;52.670;6.750;2023-10-19T04:19:11;130.05;;;122.75;;
60292;SDS011;52402;52.670;6.750;2023-10-19T04:24:07;126.40;;;119.30;;
60292;SDS011;52402;52.670;6.750;2023-10-19T04:26:36;130.30;;;123.00;;
60292;SDS011;52402;52.670;6.750;2023-10-19T04:29:03;128.50;;;121.25;;
60292;SDS011;52402;52.670;6.750;2023-10-19T04:31:36;132.45;;;125.05;;
60292;SDS011;52402;52.670;6.750;2023-10-19T04:34:03;129.55;;;122.35;;
60292;SDS011;52402;52.670;6.750;2023-10-19T04:36:35;129.02;;;121.82;;
60292;SDS011;52402;52.670;6.750;2023-10-19T04:39:00;128.50;;;121.30;;
60292;SDS011;52402;52.670;6.750;2023-10-19T04:41:27;131.50;;;124.20;;
60292;SDS011;52402;52.670;6.750;2023-10-19T04:43:53;133.40;;;126.00;;
60292;SDS011;52402;52.670;6.750;2023-10-19T04:46:19;133.27;;;125.78;;
60292;SDS011;52402;52.670;6.750;2023-10-19T04:48:46;130.35;;;123.05;;
60292;SDS011;52402;52.670;6.750;2023-10-19T04:51:12;128.85;;;121.55;;
60292;SDS011;52402;52.670;6.750;2023-10-19T04:53:37;129.32;;;122.13;;
60292;SDS011;52402;52.670;6.750;2023-10-19T04:56:07;127.65;;;120.55;;
60292;SDS011;52402;52.670;6.750;2023-10-19T04:58:34;130.57;;;123.28;;
60292;SDS011;52402;52.670;6.750;2023-10-19T05:01:00;126.40;;;119.32;;
60292;SDS011;52402;52.670;6.750;2023-10-19T05:03:26;127.72;;;120.43;;
60292;SDS011;52402;52.670;6.750;2023-10-19T05:05:53;133.43;;;126.03;;
60292;SDS011;52402;52.670;6.750;2023-10-19T05:08:19;130.85;;;123.55;;
60292;SDS011;52402;52.670;6.750;2023-10-19T05:10:45;127.60;;;120.40;;
60292;SDS011;52402;52.670;6.750;2023-10-19T05:13:11;127.20;;;119.88;;
60292;SDS011;52402;52.670;6.750;2023-10-19T05:15:37;126.43;;;119.22;;
60292;SDS011;52402;52.670;6.750;2023-10-19T05:18:03;125.22;;;118.03;;
60292;SDS011;52402;52.670;6.750;2023-10-19T05:20:29;124.45;;;117.35;;
60292;SDS011;52402;52.670;6.750;2023-10-19T05:22:55;120.53;;;113.68;;
60292;SDS011;52402;52.670;6.750;2023-10-19T05:25:23;124.22;;;117.18;;
60292;SDS011;52402;52.670;6.750;2023-10-19T05:27:48;120.93;;;113.97;;
60292;SDS011;52402;52.670;6.750;2023-10-19T05:30:14;124.88;;;117.75;;
60292;SDS011;52402;52.670;6.750;2023-10-19T05:32:40;122.82;;;115.93;;
60292;SDS011;52402;52.670;6.750;2023-10-19T05:35:05;121.63;;;114.82;;
60292;SDS011;52402;52.670;6.750;2023-10-19T05:37:31;120.88;;;113.97;;
60292;SDS011;52402;52.670;6.750;2023-10-19T05:39:57;123.65;;;116.68;;
60292;SDS011;52402;52.670;6.750;2023-10-19T05:42:23;127.22;;;120.22;;
60292;SDS011;52402;52.670;6.750;2023-10-19T05:44:50;124.18;;;117.18;;
60292;SDS011;52402;52.670;6.750;2023-10-19T05:47:16;121.15;;;114.25;;
60292;SDS011;52402;52.670;6.750;2023-10-19T05:49:42;126.47;;;119.20;;
60292;SDS011;52402;52.670;6.750;2023-10-19T05:52:08;124.72;;;117.60;;
60292;SDS011;52402;52.670;6.750;2023-10-19T05:54:38;127.25;;;119.95;;
60292;SDS011;52402;52.670;6.750;2023-10-19T05:57:05;128.90;;;121.60;;
60292;SDS011;52402;52.670;6.750;2023-10-19T05:59:33;127.47;;;120.20;;
60292;SDS011;52402;52.670;6.750;2023-10-19T06:01:59;127.95;;;120.70;;
60292;SDS011;52402;52.670;6.750;2023-10-19T06:04:24;126.43;;;119.22;;
60292;SDS011;52402;52.670;6.750;2023-10-19T06:06:50;128.98;;;121.57;;
60292;SDS011;52402;52.670;6.750;2023-10-19T06:09:16;128.32;;;121.13;;
60292;SDS011;52402;52.670;6.750;2023-10-19T06:11:43;125.60;;;118.50;;
60292;SDS011;52402;52.670;6.750;2023-10-19T06:14:09;125.90;;;118.90;;
60292;SDS011;52402;52.670;6.750;2023-10-19T06:16:35;122.80;;;115.90;;
60292;SDS011;52402;52.670;6.750;2023-10-19T06:19:00;127.13;;;120.13;;
60292;SDS011;52402;52.670;6.750;2023-10-19T06:21:28;125.30;;;118.35;;
60292;SDS011;52402;52.670;6.750;2023-10-19T06:24:03;122.15;;;115.45;;
60292;SDS011;52402;52.670;6.750;2023-10-19T06:26:29;123.70;;;117.20;;
60292;SDS011;52402;52.670;6.750;2023-10-19T06:28:55;123.38;;;116.68;;
60292;SDS011;52402;52.670;6.750;2023-10-19T06:31:24;119.90;;;113.63;;
60292;SDS011;52402;52.670;6.750;2023-10-19T06:33:54;120.10;;;113.90;;
60292;SDS011;52402;52.670;6.750;2023-10-19T06:36:22;116.65;;;110.45;;
60292;SDS011;52402;52.670;6.750;2023-10-19T06:38:47;122.38;;;116.15;;
60292;SDS011;52402;52.670;6.750;2023-10-19T06:41:16;120.35;;;114.05;;
60292;SDS011;52402;52.670;6.750;2023-10-19T06:43:50;120.78;;;114.38;;
60292;SDS011;52402;52.670;6.750;2023-10-19T06:46:16;122.88;;;116.47;;
60292;SDS011;52402;52.670;6.750;2023-10-19T06:48:42;122.43;;;116.03;;
60292;SDS011;52402;52.670;6.750;2023-10-19T06:51:07;124.45;;;117.85;;
60292;SDS011;52402;52.670;6.750;2023-10-19T06:53:33;122.88;;;116.47;;
60292;SDS011;52402;52.670;6.750;2023-10-19T06:56:06;124.50;;;118.00;;
60292;SDS011;52402;52.670;6.750;2023-10-19T06:58:33;128.38;;;121.68;;
60292;SDS011;52402;52.670;6.750;2023-10-19T07:00:59;124.93;;;118.43;;
60292;SDS011;52402;52.670;6.750;2023-10-19T07:03:30;126.28;;;119.78;;
60292;SDS011;52402;52.670;6.750;2023-10-19T07:05:56;126.65;;;120.00;;
60292;SDS011;52402;52.670;6.750;2023-10-19T07:08:23;131.30;;;124.53;;
60292;SDS011;52402;52.670;6.750;2023-10-19T07:10:49;133.68;;;126.78;;
60292;SDS011;52402;52.670;6.750;2023-10-19T07:13:15;136.77;;;129.77;;
60292;SDS011;52402;52.670;6.750;2023-10-19T07:15:41;132.13;;;125.32;;
60292;SDS011;52402;52.670;6.750;2023-10-19T07:18:09;129.55;;;122.88;;
60292;SDS011;52402;52.670;6.750;2023-10-19T07:20:37;130.20;;;123.45;;
60292;SDS011;52402;52.670;6.750;2023-10-19T07:23:04;134.93;;;128.02;;
60292;SDS011;52402;52.670;6.750;2023-10-19T07:25:47;133.77;;;126.88;;
60292;SDS011;52402;52.670;6.750;2023-10-19T07:28:18;133.95;;;126.95;;
60292;SDS011;52402;52.670;6.750;2023-10-19T07:30:44;128.73;;;121.93;;
60292;SDS011;52402;52.670;6.750;2023-10-19T07:33:11;126.55;;;119.93;;
60292;SDS011;52402;52.670;6.750;2023-10-19T07:35:44;126.80;;;120.22;;
60292;SDS011;52402;52.670;6.750;2023-10-19T07:38:14;125.45;;;118.85;;
60292;SDS011;52402;52.670;6.750;2023-10-19T07:43:08;129.27;;;122.53;;
60292;SDS011;52402;52.670;6.750;2023-10-19T07:45:34;135.05;;;127.95;;
60292;SDS011;52402;52.670;6.750;2023-10-19T07:48:01;129.43;;;122.50;;
60292;SDS011;52402;52.670;6.750;2023-10-19T07:50:40;131.05;;;124.07;;
60292;SDS011;52402;52.670;6.750;2023-10-19T07:53:07;128.75;;;121.85;;
60292;SDS011;52402;52.670;6.750;2023-10-19T07:55:34;121.97;;;115.47;;
60292;SDS011;52402;52.670;6.750;2023-10-19T07:58:00;120.15;;;113.63;;
60292;SDS011;52402;52.670;6.750;2023-10-19T08:00:26;121.35;;;114.75;;
60292;SDS011;52402;52.670;6.750;2023-10-19T08:02:54;116.68;;;110.18;;
60292;SDS011;52402;52.670;6.750;2023-10-19T08:05:20;124.55;;;117.85;;
60292;SDS011;52402;52.670;6.750;2023-10-19T08:07:46;125.60;;;118.80;;
60292;SDS011;52402;52.670;6.750;2023-10-19T08:10:16;121.75;;;115.15;;
60292;SDS011;52402;52.670;6.750;2023-10-19T08:12:43;123.63;;;116.95;;
60292;SDS011;52402;52.670;6.750;2023-10-19T08:15:12;121.93;;;115.32;;
60292;SDS011;52402;52.670;6.750;2023-10-19T08:17:39;124.85;;;118.18;;
60292;SDS011;52402;52.670;6.750;2023-10-19T08:20:06;127.25;;;120.38;;
60292;SDS011;52402;52.670;6.750;2023-10-19T08:22:41;123.03;;;116.32;;
60292;SDS011;52402;52.670;6.750;2023-10-19T08:25:12;126.18;;;119.28;;
60292;SDS011;52402;52.670;6.750;2023-10-19T08:27:49;127.97;;;121.10;;
60292;SDS011;52402;52.670;6.750;2023-10-19T08:30:17;131.15;;;124.15;;
60292;SDS011;52402;52.670;6.750;2023-10-19T08:32:43;124.35;;;117.65;;
60292;SDS011;52402;52.670;6.750;2023-10-19T08:35:13;125.05;;;118.25;;
60292;SDS011;52402;52.670;6.750;2023-10-19T08:37:40;124.07;;;117.40;;
60292;SDS011;52402;52.670;6.750;2023-10-19T08:40:10;122.35;;;115.75;;
60292;SDS011;52402;52.670;6.750;2023-10-19T08:42:43;116.43;;;110.03;;
60292;SDS011;52402;52.670;6.750;2023-10-19T08:45:10;124.85;;;118.15;;
60292;SDS011;52402;52.670;6.750;2023-10-19T08:47:59;120.03;;;113.53;;
60292;SDS011;52402;52.670;6.750;2023-10-19T08:50:34;119.45;;;113.05;;
60292;SDS011;52402;52.670;6.750;2023-10-19T08:53:01;125.13;;;118.45;;
60292;SDS011;52402;52.670;6.750;2023-10-19T08:55:30;122.22;;;115.68;;
60292;SDS011;52402;52.670;6.750;2023-10-19T08:58:00;123.57;;;116.85;;
60292;SDS011;52402;52.670;6.750;2023-10-19T09:00:27;126.72;;;119.93;;
60292;SDS011;52402;52.670;6.750;2023-10-19T09:02:53;125.57;;;118.88;;
60292;SDS011;52402;52.670;6.750;2023-10-19T09:05:19;128.68;;;121.80;;
60292;SDS011;52402;52.670;6.750;2023-10-19T09:07:47;124.90;;;118.00;;
60292;SDS011;52402;52.670;6.750;2023-10-19T09:10:20;122.28;;;115.53;;
60292;SDS011;52402;52.670;6.750;2023-10-19T09:13:00;122.80;;;116.00;;
60292;SDS011;52402;52.670;6.750;2023-10-19T09:15:27;116.72;;;110.18;;
60292;SDS011;52402;52.670;6.750;2023-10-19T09:17:55;122.50;;;115.68;;
60292;SDS011;52402;52.670;6.750;2023-10-19T09:20:21;116.55;;;109.95;;
60292;SDS011;52402;52.670;6.750;2023-10-19T09:22:54;116.85;;;110.35;;
60292;SDS011;52402;52.670;6.750;2023-10-19T09:25:20;121.78;;;115.07;;
60292;SDS011;52402;52.670;6.750;2023-10-19T09:27:46;121.50;;;114.68;;
60292;SDS011;52402;52.670;6.750;2023-10-19T09:30:12;118.80;;;112.20;;
60292;SDS011;52402;52.670;6.750;2023-10-19T09:32:46;117.35;;;110.75;;
60292;SDS011;52402;52.670;6.750;2023-10-19T09:35:13;120.38;;;113.78;;
60292;SDS011;52402;52.670;6.750;2023-10-19T09:37:41;118.60;;;112.00;;
60292;SDS011;52402;52.670;6.750;2023-10-19T09:40:08;120.18;;;113.53;;
60292;SDS011;52402;52.670;6.750;2023-10-19T09:42:44;120.65;;;113.95;;
60292;SDS011;52402;52.670;6.750;2023-10-19T09:45:16;120.30;;;113.70;;
60292;SDS011;52402;52.670;6.750;2023-10-19T09:47:46;116.95;;;110.40;;
60292;SDS011;52402;52.670;6.750;2023-10-19T09:50:15;121.00;;;114.30;;
60292;SDS011;52402;52.670;6.750;2023-10-19T09:52:41;120.05;;;113.35;;
60292;SDS011;52402;52.670;6.750;2023-10-19T09:57:49;117.85;;;111.15;;
60292;SDS011;52402;52.670;6.750;2023-10-19T10:00:18;118.22;;;111.63;;
60292;SDS011;52402;52.670;6.750;2023-10-19T10:02:53;115.25;;;108.75;;
60292;SDS011;52402;52.670;6.750;2023-10-19T10:10:45;112.20;;;106.00;;
60292;SDS011;52402;52.670;6.750;2023-10-19T10:15:55;117.00;;;110.60;;
60292;SDS011;52402;52.670;6.750;2023-10-19T10:18:30;113.18;;;106.88;;
60292;SDS011;52402;52.670;6.750;2023-10-19T10:21:12;111.70;;;105.50;;
60292;SDS011;52402;52.670;6.750;2023-10-19T10:23:48;103.70;;;97.80;;
60292;SDS011;52402;52.670;6.750;2023-10-19T10:26:18;106.10;;;100.10;;
60292;SDS011;52402;52.670;6.750;2023-10-19T10:31:34;109.63;;;103.45;;
60292;SDS011;52402;52.670;6.750;2023-10-19T10:34:05;105.07;;;99.18;;
60292;SDS011;52402;52.670;6.750;2023-10-19T10:39:30;112.78;;;106.57;;
60292;SDS011;52402;52.670;6.750;2023-10-19T10:41:59;107.88;;;101.82;;
60292;SDS011;52402;52.670;6.750;2023-10-19T10:44:39;109.78;;;103.53;;
60292;SDS011;52402;52.670;6.750;2023-10-19T10:47:10;111.68;;;105.47;;
60292;SDS011;52402;52.670;6.750;2023-10-19T10:49:48;105.90;;;99.90;;
60292;SDS011;52402;52.670;6.750;2023-10-19T10:52:35;104.53;;;98.45;;
60292;SDS011;52402;52.670;6.750;2023-10-19T10:55:12;99.95;;;94.15;;
60292;SDS011;52402;52.670;6.750;2023-10-19T10:57:42;102.90;;;96.95;;
60292;SDS011;52402;52.670;6.750;2023-10-19T11:00:15;101.95;;;96.05;;
60292;SDS011;52402;52.670;6.750;2023-10-19T11:02:41;102.47;;;96.53;;
60292;SDS011;52402;52.670;6.750;2023-10-19T11:05:08;108.72;;;102.53;;
60292;SDS011;52402;52.670;6.750;2023-10-19T11:07:37;106.45;;;100.40;;
60292;SDS011;52402;52.670;6.750;2023-10-19T11:10:04;107.00;;;100.90;;
60292;SDS011;52402;52.670;6.750;2023-10-19T11:12:29;112.18;;;105.88;;
60292;SDS011;52402;52.670;6.750;2023-10-19T11:14:55;111.00;;;104.82;;
60292;SDS011;52402;52.670;6.750;2023-10-19T11:17:24;106.43;;;100.43;;
60292;SDS011;52402;52.670;6.750;2023-10-19T11:19:56;108.20;;;102.18;;
60292;SDS011;52402;52.670;6.750;2023-10-19T11:22:23;103.53;;;97.75;;
60292;SDS011;52402;52.670;6.750;2023-10-19T11:24:55;104.60;;;98.72;;
60292;SDS011;52402;52.670;6.750;2023-10-19T11:27:41;103.53;;;97.78;;
60292;SDS011;52402;52.670;6.750;2023-10-19T11:30:06;105.13;;;99.28;;
60292;SDS011;52402;52.670;6.750;2023-10-19T11:32:36;107.35;;;101.40;;
60292;SDS011;52402;52.670;6.750;2023-10-19T11:35:06;110.00;;;103.90;;
60292;SDS011;52402;52.670;6.750;2023-10-19T11:40:15;99.40;;;93.80;;
60292;SDS011;52402;52.670;6.750;2023-10-19T11:42:42;99.72;;;94.22;;
60292;SDS011;52402;52.670;6.750;2023-10-19T11:45:08;96.93;;;91.43;;
60292;SDS011;52402;52.670;6.750;2023-10-19T11:47:35;93.28;;;87.90;;
60292;SDS011;52402;52.670;6.750;2023-10-19T11:50:01;91.43;;;86.13;;
60292;SDS011;52402;52.670;6.750;2023-10-19T11:52:26;99.88;;;94.28;;
60292;SDS011;52402;52.670;6.750;2023-10-19T11:55:04;96.65;;;91.15;;
60292;SDS011;52402;52.670;6.750;2023-10-19T11:57:31;96.68;;;91.15;;
60292;SDS011;52402;52.670;6.750;2023-10-19T11:59:57;92.35;;;86.95;;
60292;SDS011;52402;52.670;6.750;2023-10-19T12:02:24;96.38;;;90.85;;
60292;SDS011;52402;52.670;6.750;2023-10-19T12:04:51;103.35;;;97.55;;
60292;SDS011;52402;52.670;6.750;2023-10-19T12:07:25;98.63;;;92.95;;
60292;SDS011;52402;52.670;6.750;2023-10-19T12:09:53;99.82;;;94.03;;
60292;SDS011;52402;52.670;6.750;2023-10-19T12:12:18;101.38;;;95.57;;
60292;SDS011;52402;52.670;6.750;2023-10-19T12:14:45;97.90;;;92.25;;
60292;SDS011;52402;52.670;6.750;2023-10-19T12:17:10;96.15;;;90.55;;
60292;SDS011;52402;52.670;6.750;2023-10-19T12:19:36;101.57;;;95.78;;
60292;SDS011;52402;52.670;6.750;2023-10-19T12:22:02;95.78;;;90.18;;
60292;SDS011;52402;52.670;6.750;2023-10-19T12:24:27;96.85;;;91.25;;
60292;SDS011;52402;52.670;6.750;2023-10-19T12:26:54;107.65;;;101.65;;
60292;SDS011;52402;52.670;6.750;2023-10-19T12:29:21;108.97;;;102.93;;
60292;SDS011;52402;52.670;6.750;2023-10-19T12:31:47;106.68;;;100.72;;
60292;SDS011;52402;52.670;6.750;2023-10-19T12:34:13;100.75;;;95.05;;
60292;SDS011;52402;52.670;6.750;2023-10-19T12:36:38;102.43;;;96.63;;
60292;SDS011;52402;52.670;6.750;2023-10-19T12:39:08;99.95;;;94.25;;
60292;SDS011;52402;52.670;6.750;2023-10-19T12:41:35;100.78;;;95.07;;
60292;SDS011;52402;52.670;6.750;2023-10-19T12:44:00;101.70;;;95.90;;
60292;SDS011;52402;52.670;6.750;2023-10-19T12:46:32;103.38;;;97.38;;
60292;SDS011;52402;52.670;6.750;2023-10-19T12:49:01;102.78;;;96.78;;
60292;SDS011;52402;52.670;6.750;2023-10-19T12:51:33;104.75;;;98.65;;
60292;SDS011;52402;52.670;6.750;2023-10-19T12:54:00;107.80;;;101.60;;
60292;SDS011;52402;52.670;6.750;2023-10-19T12:56:28;100.78;;;94.88;;
60292;SDS011;52402;52.670;6.750;2023-10-19T12:58:54;105.00;;;98.90;;
60292;SDS011;52402;52.670;6.750;2023-10-19T13:01:19;110.88;;;104.57;;
60292;SDS011;52402;52.670;6.750;2023-10-19T13:03:46;108.32;;;102.13;;
60292;SDS011;52402;52.670;6.750;2023-10-19T13:06:14;115.50;;;108.90;;
60292;SDS011;52402;52.670;6.750;2023-10-19T13:08:40;110.15;;;103.80;;
60292;SDS011;52402;52.670;6.750;2023-10-19T13:11:07;113.85;;;107.38;;
60292;SDS011;52402;52.670;6.750;2023-10-19T13:13:34;117.32;;;110.72;;
60292;SDS011;52402;52.670;6.750;2023-10-19T13:16:04;111.47;;;105.18;;
60292;SDS011;52402;52.670;6.750;2023-10-19T13:18:34;116.40;;;109.90;;
60292;SDS011;52402;52.670;6.750;2023-10-19T13:21:00;115.10;;;108.57;;
60292;SDS011;52402;52.670;6.750;2023-10-19T13:23:31;113.05;;;106.65;;
60292;SDS011;52402;52.670;6.750;2023-10-19T13:26:03;112.35;;;105.97;;
60292;SDS011;52402;52.670;6.750;2023-10-19T13:28:32;114.93;;;108.43;;
60292;SDS011;52402;52.670;6.750;2023-10-19T13:30:58;115.57;;;109.18;;
60292;SDS011;52402;52.670;6.750;2023-10-19T13:33:23;114.90;;;108.40;;
60292;SDS011;52402;52.670;6.750;2023-10-19T13:35:50;110.30;;;104.10;;
60292;SDS011;52402;52.670;6.750;2023-10-19T13:38:16;111.35;;;105.07;;
60292;SDS011;52402;52.670;6.750;2023-10-19T13:40:44;120.25;;;113.55;;
60292;SDS011;52402;52.670;6.750;2023-10-19T13:43:11;118.40;;;111.80;;
60292;SDS011;52402;52.670;6.750;2023-10-19T13:45:43;117.35;;;110.75;;
60292;SDS011;52402;52.670;6.750;2023-10-19T13:48:09;115.05;;;108.55;;
60292;SDS011;52402;52.670;6.750;2023-10-19T13:50:40;118.72;;;112.03;;
60292;SDS011;52402;52.670;6.750;2023-10-19T13:53:12;119.55;;;112.88;;
60292;SDS011;52402;52.670;6.750;2023-10-19T13:55:39;119.20;;;112.50;;
60292;SDS011;52402;52.670;6.750;2023-10-19T13:58:08;121.53;;;114.72;;
60292;SDS011;52402;52.670;6.750;2023-10-19T14:00:34;120.53;;;113.82;;
60292;SDS011;52402;52.670;6.750;2023-10-19T14:03:08;125.38;;;118.47;;
60292;SDS011;52402;52.670;6.750;2023-10-19T14:05:37;121.75;;;114.93;;
60292;SDS011;52402;52.670;6.750;2023-10-19T14:08:05;116.88;;;110.28;;
60292;SDS011;52402;52.670;6.750;2023-10-19T14:10:31;122.90;;;116.10;;
60292;SDS011;52402;52.670;6.750;2023-10-19T14:12:58;126.72;;;119.68;;
60292;SDS011;52402;52.670;6.750;2023-10-19T14:15:24;121.47;;;114.68;;
60292;SDS011;52402;52.670;6.750;2023-10-19T14:17:50;122.97;;;116.07;;
60292;SDS011;52402;52.670;6.750;2023-10-19T14:20:16;127.32;;;120.13;;
60292;SDS011;52402;52.670;6.750;2023-10-19T14:22:43;127.53;;;120.43;;
60292;SDS011;52402;52.670;6.750;2023-10-19T14:25:09;122.50;;;115.60;;
60292;SDS011;52402;52.670;6.750;2023-10-19T14:27:39;126.07;;;118.97;;
60292;SDS011;52402;52.670;6.750;2023-10-19T14:32:41;123.70;;;116.80;;
60292;SDS011;52402;52.670;6.750;2023-10-19T14:35:08;124.00;;;117.10;;
60292;SDS011;52402;52.670;6.750;2023-10-19T14:37:39;120.50;;;113.70;;
60292;SDS011;52402;52.670;6.750;2023-10-19T14:42:36;121.05;;;114.25;;
60292;SDS011;52402;52.670;6.750;2023-10-19T14:45:08;126.72;;;119.75;;
60292;SDS011;52402;52.670;6.750;2023-10-19T14:47:39;126.78;;;119.82;;
60292;SDS011;52402;52.670;6.750;2023-10-19T14:50:20;122.75;;;115.95;;
60292;SDS011;52402;52.670;6.750;2023-10-19T14:52:48;131.65;;;124.45;;
60292;SDS011;52402;52.670;6.750;2023-10-19T14:55:16;129.65;;;122.45;;